Decoded Metar for LEMI ( in ) (IATA:) | Meteo·Mobile Aviation Weather
aviador You're here:

LEMI Decoded Metar

in
Report Time2019-10-19 22:00:00
UTC Time2019-10-19 22:27:16
Flight Rules vfr VFR
Wind290° at 03 kt
Visibility9999 m
Phenomena:N/A
Clouds:N/A
Expected CloudBase > 800 ft AGL from Temp-Dew spread
CeilingNone
Temp16°C
Dew Point14°C (88% RH)
QNH1008 hPa
Raw Report
METAR LEMI 192200Z AUTO 29003KT 9999 NCD 16/14 Q1008=

Extra information for LEMI:More info

Social comments